createdAt,value
2022-07-26T00:02:09.795Z,11.68
2022-07-26T00:04:38.318Z,19.02
2022-07-26T00:07:08.633Z,13.88
2022-07-26T00:09:36.903Z,19.77
2022-07-26T00:12:05.697Z,16.50
2022-07-26T00:14:34.078Z,11.88
2022-07-26T00:17:06.570Z,16.73
2022-07-26T00:19:34.877Z,15.00
2022-07-26T00:22:22.027Z,10.27
2022-07-26T00:24:50.351Z,12.93
2022-07-26T00:27:18.646Z,14.98
2022-07-26T00:29:47.048Z,15.75
2022-07-26T00:32:15.451Z,11.15
2022-07-26T00:34:43.861Z,12.93
2022-07-26T00:37:14.982Z,15.13
2022-07-26T00:39:45.729Z,11.93
2022-07-26T00:42:14.180Z,12.50
2022-07-26T00:44:45.291Z,17.75
2022-07-26T00:47:14.908Z,12.55
2022-07-26T00:49:43.880Z,12.77
2022-07-26T00:52:12.564Z,10.45
2022-07-26T00:54:45.582Z,10.43
2022-07-26T00:57:15.039Z,16.23
2022-07-26T00:59:43.549Z,13.52
2022-07-26T01:02:12.058Z,12.02
2022-07-26T01:04:44.253Z,10.40
2022-07-26T01:07:15.990Z,12.10
2022-07-26T01:09:45.040Z,16.48
2022-07-26T01:12:14.409Z,7.20
2022-07-26T01:14:44.913Z,16.23
2022-07-26T01:17:14.315Z,10.43
2022-07-26T01:19:43.006Z,10.20
2022-07-26T01:22:14.580Z,9.23
2022-07-26T01:24:43.369Z,10.60
2022-07-26T01:27:12.309Z,6.65
2022-07-26T01:29:40.758Z,7.65
2022-07-26T01:32:09.620Z,5.13
2022-07-26T01:34:37.999Z,9.55
2022-07-26T01:37:07.639Z,7.15
2022-07-26T01:39:36.158Z,7.40
2022-07-26T01:42:05.003Z,9.95
2022-07-26T01:44:33.584Z,7.32
2022-07-26T01:47:01.858Z,6.15
2022-07-26T01:49:30.332Z,10.18
2022-07-26T01:51:59.033Z,5.65
2022-07-26T01:54:27.470Z,6.90
2022-07-26T01:56:56.052Z,10.02
2022-07-26T01:59:24.468Z,11.07
2022-07-26T02:01:52.949Z,10.50
2022-07-26T02:04:39.783Z,8.43
2022-07-26T02:07:12.886Z,6.93
2022-07-26T02:09:41.703Z,8.02
2022-07-26T02:12:10.137Z,8.57
2022-07-26T02:14:38.566Z,4.03
2022-07-26T02:17:07.516Z,7.85
2022-07-26T02:19:37.078Z,9.27
2022-07-26T02:22:05.848Z,7.40
2022-07-26T02:24:34.500Z,9.23
2022-07-26T02:27:04.547Z,7.13
2022-07-26T02:29:33.251Z,3.53
2022-07-26T02:32:01.816Z,11.32
2022-07-26T02:34:33.770Z,4.55
2022-07-26T02:37:03.341Z,6.47
2022-07-26T02:39:31.911Z,6.57
2022-07-26T02:42:02.220Z,7.80
2022-07-26T02:44:30.712Z,8.00
2022-07-26T02:46:59.393Z,6.93
2022-07-26T02:49:27.861Z,8.00
2022-07-26T02:51:56.294Z,9.05
2022-07-26T02:54:24.603Z,6.47
2022-07-26T02:56:53.025Z,12.73
2022-07-26T02:59:21.465Z,6.38
2022-07-26T03:01:49.938Z,8.90
2022-07-26T03:04:18.501Z,15.95
2022-07-26T03:06:47.228Z,11.45
2022-07-26T03:09:16.065Z,11.68
2022-07-26T03:11:44.403Z,10.98
2022-07-26T03:14:12.902Z,8.60
2022-07-26T03:16:43.675Z,9.23
2022-07-26T03:19:12.055Z,9.30
2022-07-26T03:21:40.388Z,8.10
2022-07-26T03:24:10.441Z,7.65
2022-07-26T03:26:38.871Z,7.65
2022-07-26T03:29:07.528Z,10.73
2022-07-26T03:31:37.070Z,3.28
2022-07-26T03:34:11.025Z,6.03
2022-07-26T03:36:39.927Z,6.05
2022-07-26T03:39:08.836Z,5.65
2022-07-26T03:41:37.153Z,6.90
2022-07-26T03:44:06.412Z,4.03
2022-07-26T03:46:35.220Z,7.47
2022-07-26T03:49:03.887Z,4.35
2022-07-26T03:51:37.044Z,2.88
2022-07-26T03:54:05.981Z,6.15
2022-07-26T03:56:34.778Z,4.38
2022-07-26T03:59:06.679Z,4.65
2022-07-26T04:01:36.528Z,3.25
2022-07-26T04:04:05.695Z,6.28
2022-07-26T04:06:37.671Z,7.13
2022-07-26T04:09:07.972Z,4.88
2022-07-26T04:11:36.797Z,4.60
2022-07-26T04:14:05.824Z,3.17
2022-07-26T04:16:36.212Z,6.13
2022-07-26T04:19:07.453Z,6.88
2022-07-26T04:21:35.784Z,6.15
2022-07-26T04:24:04.416Z,3.92
2022-07-26T04:26:32.955Z,6.22
2022-07-26T04:29:01.262Z,4.10
2022-07-26T04:31:29.616Z,3.78
2022-07-26T04:34:05.694Z,10.40
2022-07-26T04:36:34.371Z,5.05
2022-07-26T04:39:02.854Z,3.45
2022-07-26T04:41:31.176Z,2.40
2022-07-26T04:43:59.547Z,4.70
2022-07-26T04:46:28.075Z,3.60
2022-07-26T04:48:56.498Z,3.92
2022-07-26T04:51:25.780Z,3.08
2022-07-26T04:53:54.198Z,6.82
2022-07-26T04:56:22.601Z,5.63
2022-07-26T04:58:50.927Z,6.40
2022-07-26T05:01:19.263Z,5.53
2022-07-26T05:03:48.239Z,3.03
2022-07-26T05:06:16.586Z,5.55
2022-07-26T05:08:45.703Z,2.13
2022-07-26T05:11:14.213Z,3.55
2022-07-26T05:13:42.620Z,5.68
2022-07-26T05:16:11.794Z,4.93
2022-07-26T05:18:45.973Z,5.97
2022-07-26T05:21:18.811Z,6.72
2022-07-26T05:23:47.264Z,4.97
2022-07-26T05:26:15.711Z,6.00
2022-07-26T05:28:44.435Z,4.05
2022-07-26T05:31:12.996Z,4.75
2022-07-26T05:33:41.626Z,5.88
2022-07-26T05:36:10.136Z,5.30
2022-07-26T05:38:39.207Z,2.97
2022-07-26T05:41:07.772Z,5.43
2022-07-26T05:43:41.080Z,3.63
2022-07-26T05:46:11.644Z,3.65
2022-07-26T05:48:40.503Z,7.05
2022-07-26T05:51:11.264Z,4.47
2022-07-26T05:56:08.036Z,8.63
2022-07-26T05:58:37.363Z,9.98
2022-07-26T06:01:07.295Z,5.07
2022-07-26T06:03:35.985Z,6.57
2022-07-26T06:06:07.171Z,3.35
2022-07-26T06:08:36.503Z,5.90
2022-07-26T06:11:05.826Z,4.50
2022-07-26T06:13:34.538Z,6.75
2022-07-26T06:16:03.118Z,5.68
2022-07-26T06:18:31.484Z,5.13
2022-07-26T06:21:02.129Z,4.95
2022-07-26T06:23:34.084Z,7.97
2022-07-26T06:26:06.279Z,7.03
2022-07-26T06:28:34.762Z,6.20
2022-07-26T06:31:03.300Z,2.75
2022-07-26T06:33:31.842Z,5.68
2022-07-26T06:36:00.692Z,8.07
2022-07-26T06:38:29.306Z,4.43
2022-07-26T06:40:58.074Z,4.45
2022-07-26T06:43:26.486Z,5.22
2022-07-26T06:45:54.981Z,7.07
2022-07-26T06:48:23.711Z,6.53
2022-07-26T06:50:52.111Z,5.75
2022-07-26T06:53:20.686Z,3.35
2022-07-26T06:55:49.234Z,2.38
2022-07-26T06:58:17.730Z,8.38
2022-07-26T07:00:46.193Z,4.13
2022-07-26T07:03:14.618Z,4.18
2022-07-26T07:05:47.941Z,3.47
2022-07-26T07:08:18.379Z,3.42
2022-07-26T07:10:47.493Z,4.55
2022-07-26T07:13:19.962Z,4.53
2022-07-26T07:15:51.314Z,2.88
2022-07-26T07:18:20.014Z,4.43
2022-07-26T07:20:48.736Z,4.70
2022-07-26T07:23:17.114Z,4.22
2022-07-26T07:25:45.551Z,2.25
2022-07-26T07:28:17.420Z,4.03
2022-07-26T07:30:47.675Z,2.78
2022-07-26T07:33:22.488Z,2.92
2022-07-26T07:35:52.312Z,7.65
2022-07-26T07:38:22.376Z,4.65
2022-07-26T07:40:51.250Z,7.90
2022-07-26T07:43:19.780Z,5.55
2022-07-26T07:45:48.588Z,6.10
2022-07-26T07:48:17.675Z,6.80
2022-07-26T07:50:46.653Z,6.45
2022-07-26T07:53:15.150Z,3.85
2022-07-26T07:55:44.042Z,13.05
2022-07-26T07:58:19.124Z,3.95
2022-07-26T08:00:48.169Z,6.60
2022-07-26T08:03:17.905Z,9.23
2022-07-26T08:05:49.768Z,12.48
2022-07-26T08:08:22.496Z,4.45
2022-07-26T08:10:52.919Z,9.77
2022-07-26T08:13:23.062Z,6.05
2022-07-26T08:15:53.358Z,7.40
2022-07-26T08:18:23.436Z,4.38
2022-07-26T08:20:53.957Z,5.80
2022-07-26T08:23:22.870Z,4.90
2022-07-26T08:26:03.298Z,2.85
2022-07-26T08:28:47.281Z,6.65
2022-07-26T08:31:17.271Z,6.32
2022-07-26T08:33:46.852Z,5.60
2022-07-26T08:36:16.736Z,4.75
2022-07-26T08:38:47.731Z,3.55
2022-07-26T08:41:18.025Z,4.15
2022-07-26T08:43:51.822Z,4.30
2022-07-26T08:46:26.028Z,7.57
2022-07-26T08:48:57.783Z,8.98
2022-07-26T08:51:27.298Z,4.55
2022-07-26T08:54:04.772Z,7.32
2022-07-26T08:56:36.638Z,6.78
2022-07-26T08:59:20.964Z,5.78
2022-07-26T09:02:02.586Z,7.13
2022-07-26T09:04:43.819Z,7.35
2022-07-26T09:07:18.591Z,5.03
2022-07-26T09:10:05.317Z,6.70
2022-07-26T09:12:34.582Z,5.03
2022-07-26T09:15:06.952Z,11.23
2022-07-26T09:17:41.563Z,7.25
2022-07-26T09:20:11.518Z,5.47
2022-07-26T09:23:10.482Z,9.75
2022-07-26T09:25:41.330Z,5.75
2022-07-26T09:28:23.522Z,7.95
2022-07-26T09:31:04.111Z,10.82
2022-07-26T09:33:47.084Z,12.23
2022-07-26T09:36:16.821Z,12.50
2022-07-26T09:38:47.950Z,8.30
2022-07-26T09:41:20.575Z,12.40
2022-07-26T09:43:53.885Z,10.38
2022-07-26T09:46:26.406Z,10.75
2022-07-26T09:49:12.315Z,9.93
2022-07-26T09:51:43.376Z,8.80
2022-07-26T09:54:17.338Z,12.00
2022-07-26T09:56:48.367Z,11.75
2022-07-26T09:59:22.457Z,9.80
2022-07-26T10:01:53.197Z,19.38
2022-07-26T10:04:22.456Z,10.90
2022-07-26T10:06:51.370Z,9.60
2022-07-26T10:09:20.127Z,9.80
2022-07-26T10:12:00.138Z,15.57
2022-07-26T10:14:46.288Z,9.20
2022-07-26T10:17:31.036Z,9.32
2022-07-26T10:20:03.083Z,10.02
2022-07-26T10:22:34.214Z,8.50
2022-07-26T10:25:18.007Z,8.93
2022-07-26T10:27:57.851Z,7.22
2022-07-26T10:30:34.909Z,8.90
2022-07-26T10:33:13.616Z,11.63
2022-07-26T10:35:43.725Z,5.97
2022-07-26T10:38:22.661Z,9.30
2022-07-26T10:41:07.715Z,3.78
2022-07-26T10:43:41.015Z,7.65
2022-07-26T10:46:13.623Z,10.65
2022-07-26T10:49:04.098Z,6.78
2022-07-26T10:51:36.256Z,5.75
2022-07-26T10:54:11.291Z,5.55
2022-07-26T10:56:40.886Z,6.97
2022-07-26T10:59:09.516Z,9.90
2022-07-26T11:01:41.585Z,6.50
2022-07-26T11:04:19.887Z,7.63
2022-07-26T11:06:48.722Z,5.00
2022-07-26T11:09:20.779Z,9.75
2022-07-26T11:11:56.811Z,6.28
2022-07-26T11:14:29.312Z,6.18
2022-07-26T11:16:58.328Z,5.78
2022-07-26T11:19:27.581Z,5.53
2022-07-26T11:22:00.958Z,6.15
2022-07-26T11:24:29.558Z,5.20
2022-07-26T11:27:06.614Z,5.13
2022-07-26T11:29:39.000Z,5.97
2022-07-26T11:32:22.142Z,3.42
2022-07-26T11:35:01.443Z,6.90
2022-07-26T11:37:30.231Z,5.97
2022-07-26T11:39:58.649Z,4.70
2022-07-26T11:42:27.391Z,6.95
2022-07-26T11:44:56.146Z,5.97
2022-07-26T11:47:26.391Z,4.45
2022-07-26T11:52:45.393Z,6.57
2022-07-26T11:55:14.122Z,3.92
2022-07-26T11:57:42.554Z,2.22
2022-07-26T12:00:12.308Z,2.45
2022-07-26T12:02:42.381Z,2.83
2022-07-26T12:05:22.193Z,3.85
2022-07-26T12:07:53.752Z,4.90
2022-07-26T12:10:22.338Z,4.47
2022-07-26T12:12:50.854Z,3.08
2022-07-26T12:15:19.360Z,7.93
2022-07-26T12:18:00.719Z,6.28
2022-07-26T12:20:29.123Z,5.15
2022-07-26T12:23:06.094Z,5.60
2022-07-26T12:25:37.421Z,4.93
2022-07-26T12:28:13.723Z,7.53
2022-07-26T12:30:42.063Z,4.60
2022-07-26T12:33:11.022Z,6.18
2022-07-26T12:35:42.952Z,6.95
2022-07-26T12:38:13.618Z,4.32
2022-07-26T12:40:43.118Z,5.32
2022-07-26T12:43:12.300Z,6.25
2022-07-26T12:45:40.877Z,2.90
2022-07-26T12:48:12.802Z,5.20
2022-07-26T12:50:41.131Z,5.88
2022-07-26T12:53:11.367Z,3.13
2022-07-26T12:55:41.653Z,3.65
2022-07-26T12:58:10.289Z,4.72
2022-07-26T13:00:38.842Z,4.03
2022-07-26T13:03:07.999Z,2.58
2022-07-26T13:05:36.968Z,3.78
2022-07-26T13:08:07.973Z,2.53
2022-07-26T13:10:36.921Z,2.15
2022-07-26T13:13:05.637Z,4.15
2022-07-26T13:15:36.068Z,3.13
2022-07-26T13:18:08.038Z,10.02
2022-07-26T13:20:38.607Z,4.57
2022-07-26T13:23:13.873Z,5.88
2022-07-26T13:25:48.468Z,5.30
2022-07-26T13:28:17.561Z,6.13
2022-07-26T13:30:47.042Z,5.28
2022-07-26T13:33:17.988Z,3.22
2022-07-26T13:35:46.364Z,4.50
2022-07-26T13:38:21.521Z,5.80
2022-07-26T13:40:50.852Z,4.03
2022-07-26T13:43:22.428Z,3.05
2022-07-26T13:45:51.131Z,2.90
2022-07-26T13:48:19.938Z,7.82
2022-07-26T13:50:49.121Z,7.38
2022-07-26T13:53:17.894Z,6.05
2022-07-26T13:55:46.455Z,6.32
2022-07-26T13:58:14.809Z,4.05
2022-07-26T14:00:43.155Z,5.18
2022-07-26T14:03:11.825Z,3.10
2022-07-26T14:05:43.328Z,3.33
2022-07-26T14:08:11.972Z,3.92
2022-07-26T14:10:43.899Z,7.40
2022-07-26T14:13:12.657Z,6.15
2022-07-26T14:15:41.201Z,3.63
2022-07-26T14:18:10.097Z,3.35
2022-07-26T14:20:38.611Z,1.75
2022-07-26T14:23:07.103Z,5.10
2022-07-26T14:25:35.543Z,4.97
2022-07-26T14:28:04.550Z,1.55
2022-07-26T14:30:33.019Z,1.77
2022-07-26T14:33:01.613Z,3.60
2022-07-26T14:35:30.128Z,1.85
2022-07-26T14:37:58.442Z,4.57
2022-07-26T14:40:26.990Z,3.72
2022-07-26T14:42:55.512Z,3.28
2022-07-26T14:45:23.935Z,2.72
2022-07-26T14:47:52.334Z,3.72
2022-07-26T14:50:26.003Z,2.20
2022-07-26T14:52:55.208Z,2.45
2022-07-26T14:55:26.589Z,4.18
2022-07-26T14:57:55.033Z,3.75
2022-07-26T15:00:23.475Z,2.13
2022-07-26T15:02:51.854Z,3.08
2022-07-26T15:05:20.331Z,5.20
2022-07-26T15:07:49.395Z,5.78
2022-07-26T15:10:17.836Z,4.80
2022-07-26T15:12:46.301Z,5.45
2022-07-26T15:15:14.718Z,3.08
2022-07-26T15:17:43.719Z,3.33
2022-07-26T15:20:12.696Z,2.33
2022-07-26T15:22:41.082Z,4.95
2022-07-26T15:25:09.696Z,5.03
2022-07-26T15:27:38.305Z,4.13
2022-07-26T15:30:11.645Z,4.50
2022-07-26T15:32:42.782Z,5.13
2022-07-26T15:35:14.228Z,2.55
2022-07-26T15:37:48.056Z,2.58
2022-07-26T15:40:16.763Z,5.25
2022-07-26T15:42:45.699Z,4.75
2022-07-26T15:45:14.752Z,4.60
2022-07-26T15:48:11.335Z,4.35
2022-07-26T15:50:33.898Z,1.77
2022-07-26T15:53:04.983Z,5.15
2022-07-26T15:55:34.466Z,5.28
2022-07-26T15:58:03.042Z,1.70
2022-07-26T16:00:31.598Z,2.70
2022-07-26T16:03:00.425Z,3.67
2022-07-26T16:05:29.034Z,2.50
2022-07-26T16:07:57.399Z,1.75
2022-07-26T16:10:25.778Z,3.25
2022-07-26T16:12:54.194Z,2.97
2022-07-26T16:15:22.585Z,1.95
2022-07-26T16:17:50.900Z,1.60
2022-07-26T16:20:20.375Z,1.40
2022-07-26T16:22:48.788Z,2.92
2022-07-26T16:25:17.212Z,3.60
2022-07-26T16:27:47.186Z,3.55
2022-07-26T16:30:15.825Z,2.30
2022-07-26T16:32:44.300Z,2.22
2022-07-26T16:35:12.956Z,2.15
2022-07-26T16:37:42.218Z,2.28
2022-07-26T16:40:19.852Z,1.50
2022-07-26T16:42:48.394Z,3.45
2022-07-26T16:45:16.825Z,3.90
2022-07-26T16:47:45.394Z,3.20
2022-07-26T16:50:13.790Z,1.48
2022-07-26T16:52:56.007Z,2.90
2022-07-26T16:55:24.618Z,1.77
2022-07-26T16:57:53.115Z,0.82
2022-07-26T17:00:22.498Z,2.47
2022-07-26T17:02:52.742Z,2.97
2022-07-26T17:05:21.305Z,1.30
2022-07-26T17:07:49.640Z,3.05
2022-07-26T17:10:18.825Z,0.88
2022-07-26T17:12:47.262Z,1.83
2022-07-26T17:15:18.094Z,2.20
2022-07-26T17:17:48.876Z,0.70
2022-07-26T17:20:18.117Z,4.10
2022-07-26T17:22:46.587Z,3.30
2022-07-26T17:25:15.343Z,0.43
2022-07-26T17:27:43.863Z,4.18
2022-07-26T17:30:13.513Z,6.28
2022-07-26T17:32:42.197Z,4.07
2022-07-26T17:35:10.898Z,1.98
2022-07-26T17:37:40.040Z,4.50
2022-07-26T17:40:10.667Z,3.60
2022-07-26T17:42:40.150Z,3.13
2022-07-26T17:45:09.036Z,3.25
2022-07-26T17:47:37.454Z,2.17
2022-07-26T17:50:38.760Z,3.20
2022-07-26T17:52:57.187Z,1.25
2022-07-26T17:55:25.637Z,2.67
2022-07-26T17:57:54.418Z,2.38
2022-07-26T18:00:28.628Z,5.32
2022-07-26T18:02:58.005Z,5.20
2022-07-26T18:05:33.370Z,3.00
2022-07-26T18:08:03.710Z,2.90
2022-07-26T18:10:32.433Z,2.45
2022-07-26T18:13:00.912Z,3.33
2022-07-26T18:15:29.748Z,5.05
2022-07-26T18:17:58.179Z,8.40
2022-07-26T18:20:26.695Z,16.23
2022-07-26T18:22:55.554Z,7.35
2022-07-26T18:25:23.987Z,2.50
2022-07-26T18:27:53.870Z,4.25
2022-07-26T18:30:22.885Z,3.40
2022-07-26T18:32:52.957Z,3.60
2022-07-26T18:35:21.476Z,3.70
2022-07-26T18:37:52.949Z,1.92
2022-07-26T18:40:23.733Z,3.53
2022-07-26T18:42:52.665Z,4.13
2022-07-26T18:45:21.337Z,3.50
2022-07-26T18:47:50.172Z,3.13
2022-07-26T18:50:20.835Z,5.05
2022-07-26T18:52:50.728Z,3.13
2022-07-26T18:55:19.989Z,7.15
2022-07-26T18:57:48.526Z,2.80
2022-07-26T19:00:21.557Z,4.47
2022-07-26T19:02:52.156Z,5.85
2022-07-26T19:07:50.355Z,2.00
2022-07-26T19:10:20.401Z,3.83
2022-07-26T19:12:49.442Z,3.50
2022-07-26T19:15:18.271Z,5.68
2022-07-26T19:17:46.738Z,2.55
2022-07-26T19:20:15.217Z,2.85
2022-07-26T19:22:44.983Z,5.70
2022-07-26T19:25:14.676Z,4.13
2022-07-26T19:27:44.017Z,1.95
2022-07-26T19:30:13.039Z,5.00
2022-07-26T19:32:44.631Z,8.05
2022-07-26T19:35:13.115Z,3.42
2022-07-26T19:37:41.637Z,4.90
2022-07-26T19:40:10.500Z,2.70
2022-07-26T19:42:39.072Z,4.30
2022-07-26T19:45:08.072Z,4.63
2022-07-26T19:47:38.694Z,2.55
2022-07-26T19:50:08.914Z,6.03
2022-07-26T19:52:40.458Z,2.92
2022-07-26T19:55:10.206Z,3.85
2022-07-26T19:57:38.826Z,9.15
2022-07-26T20:00:09.889Z,3.03
2022-07-26T20:02:41.971Z,3.33
2022-07-26T20:05:11.957Z,4.70
2022-07-26T20:07:40.696Z,2.60
2022-07-26T20:10:09.364Z,5.75
2022-07-26T20:12:38.970Z,9.67
2022-07-26T20:15:10.305Z,6.60
2022-07-26T20:17:39.964Z,3.38
2022-07-26T20:20:10.096Z,7.43
2022-07-26T20:22:38.698Z,5.25
2022-07-26T20:25:07.565Z,3.70
2022-07-26T20:27:36.583Z,5.95
2022-07-26T20:30:07.279Z,3.90
2022-07-26T20:32:35.665Z,7.28
2022-07-26T20:35:04.750Z,6.38
2022-07-26T20:37:33.132Z,7.78
2022-07-26T20:40:02.098Z,6.78
2022-07-26T20:42:30.649Z,6.60
2022-07-26T20:45:01.129Z,4.35
2022-07-26T20:47:29.873Z,4.72
2022-07-26T20:50:02.958Z,5.03
2022-07-26T20:52:32.103Z,3.50
2022-07-26T20:55:00.705Z,4.38
2022-07-26T20:57:29.246Z,2.58
2022-07-26T20:59:57.863Z,6.10
2022-07-26T21:02:26.651Z,4.22
2022-07-26T21:04:55.551Z,4.05
2022-07-26T21:07:24.297Z,4.38
2022-07-26T21:10:12.841Z,6.28
2022-07-26T21:12:41.747Z,4.85
2022-07-26T21:15:10.722Z,7.10
2022-07-26T21:17:39.765Z,6.10
2022-07-26T21:20:08.616Z,7.95
2022-07-26T21:22:36.967Z,3.83
2022-07-26T21:25:07.275Z,4.70
2022-07-26T21:27:35.731Z,9.63
2022-07-26T21:30:06.347Z,5.05
2022-07-26T21:32:35.018Z,5.55
2022-07-26T21:35:03.877Z,10.90
2022-07-26T21:37:34.081Z,3.15
2022-07-26T21:40:02.682Z,5.90
2022-07-26T21:42:31.149Z,7.65
2022-07-26T21:44:59.833Z,3.47
2022-07-26T21:47:32.116Z,3.63
2022-07-26T21:50:01.024Z,4.30
2022-07-26T21:52:29.514Z,5.72
2022-07-26T21:54:57.905Z,4.45
2022-07-26T21:57:26.294Z,10.60
2022-07-26T21:59:54.870Z,6.72
2022-07-26T22:02:23.709Z,2.85
2022-07-26T22:04:52.152Z,3.40
2022-07-26T22:07:20.642Z,8.90
2022-07-26T22:09:49.013Z,7.78
2022-07-26T22:12:17.367Z,5.80
2022-07-26T22:14:46.084Z,7.63
2022-07-26T22:17:14.782Z,6.85
2022-07-26T22:19:43.159Z,7.00
2022-07-26T22:22:11.668Z,2.78
2022-07-26T22:24:40.168Z,7.00
2022-07-26T22:27:08.553Z,4.15
2022-07-26T22:29:40.052Z,5.05
2022-07-26T22:32:08.819Z,1.95
2022-07-26T22:34:37.198Z,5.38
2022-07-26T22:37:05.601Z,4.35
2022-07-26T22:39:34.082Z,4.70
2022-07-26T22:42:15.416Z,2.35
2022-07-26T22:44:44.407Z,6.00
2022-07-26T22:47:12.756Z,3.20
2022-07-26T22:49:41.238Z,4.75
2022-07-26T22:52:11.566Z,2.20
2022-07-26T22:54:39.953Z,5.57
2022-07-26T22:57:14.491Z,1.90
2022-07-26T22:59:42.798Z,2.65
2022-07-26T23:02:11.149Z,2.50
2022-07-26T23:04:40.121Z,4.53
2022-07-26T23:07:09.016Z,3.25
2022-07-26T23:09:37.384Z,4.35
2022-07-26T23:12:06.732Z,6.70
2022-07-26T23:14:35.403Z,2.00
2022-07-26T23:17:04.109Z,7.10
2022-07-26T23:19:32.960Z,4.00
2022-07-26T23:22:01.273Z,5.60
2022-07-26T23:24:29.711Z,4.45
2022-07-26T23:26:58.236Z,4.50
2022-07-26T23:29:26.843Z,4.22
2022-07-26T23:31:55.224Z,3.72
2022-07-26T23:34:23.632Z,4.18
2022-07-26T23:36:52.218Z,3.63
2022-07-26T23:39:22.191Z,5.40
2022-07-26T23:41:50.530Z,4.57
2022-07-26T23:44:19.002Z,4.72
2022-07-26T23:46:47.344Z,8.93
2022-07-26T23:49:16.057Z,8.20
2022-07-26T23:51:44.753Z,8.15
2022-07-26T23:54:13.438Z,6.55
2022-07-26T23:56:42.003Z,3.75
2022-07-26T23:59:10.555Z,7.70
